Time;durP1;ratioP1;P1;durP2;ratioP2;P2;SDS_P1;SDS_P2;PMS_P1;PMS_P2;Temp;Humidity;BMP_temperature;BMP_pressure;BME280_temperature;BME280_humidity;BME280_pressure;Samples;Min_cycle;Max_cycle;Signal;HPM_P1;HPM_P2
2022/11/21 00:01:17;;;;;;;100.20;33.13;;;;;;;2.22;100.00;100567.66;5014793;28;20108;-69
2022/11/21 00:03:42;;;;;;;100.60;33.63;;;;;;;2.24;100.00;100553.06;5015864;28;20029;-68
2022/11/21 00:06:08;;;;;;;104.25;35.50;;;;;;;2.23;100.00;100553.00;5019124;28;20396;-70
2022/11/21 00:08:33;;;;;;;128.95;34.53;;;;;;;2.23;100.00;100553.88;5023568;28;20080;-70
2022/11/21 00:10:59;;;;;;;95.75;33.67;;;;;;;2.24;100.00;100549.56;5010959;28;20045;-70
2022/11/21 00:13:24;;;;;;;83.90;30.20;;;;;;;2.23;100.00;100546.09;5012948;28;20021;-70
2022/11/21 00:15:50;;;;;;;93.45;31.38;;;;;;;2.21;100.00;100541.63;5014691;28;20434;-69
2022/11/21 00:18:15;;;;;;;91.82;32.58;;;;;;;2.19;100.00;100545.03;5031943;28;20530;-71
2022/11/21 00:20:42;;;;;;;92.65;32.55;;;;;;;2.21;100.00;100546.84;5023018;28;20393;-70
2022/11/21 00:23:08;;;;;;;86.47;30.13;;;;;;;2.21;100.00;100547.72;5027908;28;20029;-70
2022/11/21 00:25:34;;;;;;;98.35;32.00;;;;;;;2.24;100.00;100553.06;5022462;28;20033;-70
2022/11/21 00:27:59;;;;;;;99.38;32.03;;;;;;;2.26;100.00;100546.22;5033797;28;20060;-69
2022/11/21 00:30:24;;;;;;;95.80;32.97;;;;;;;2.28;100.00;100557.56;5035820;28;20029;-69
2022/11/21 00:32:50;;;;;;;112.95;32.90;;;;;;;2.29;100.00;100567.16;5033908;28;20021;-70
2022/11/21 00:35:15;;;;;;;106.85;35.60;;;;;;;2.29;100.00;100566.25;5016519;28;20034;-70
2022/11/21 00:37:41;;;;;;;132.82;34.60;;;;;;;2.28;100.00;100562.75;5023331;28;20029;-70
2022/11/21 00:40:06;;;;;;;109.07;34.97;;;;;;;2.31;100.00;100562.91;5024852;28;20109;-70
2022/11/21 00:42:32;;;;;;;124.20;36.17;;;;;;;2.30;100.00;100552.44;5028392;28;20465;-70
2022/11/21 00:44:57;;;;;;;129.23;36.78;;;;;;;2.34;100.00;100556.97;5031862;28;20025;-70
2022/11/21 00:47:23;;;;;;;194.40;42.65;;;;;;;2.32;100.00;100555.97;5021752;28;20512;-68
2022/11/21 00:49:48;;;;;;;193.25;40.63;;;;;;;2.30;100.00;100550.72;5016749;28;20053;-69
2022/11/21 00:52:15;;;;;;;163.85;41.15;;;;;;;2.30;100.00;100555.03;5031214;28;20064;-71
2022/11/21 00:54:40;;;;;;;140.73;39.50;;;;;;;2.30;100.00;100548.13;5023599;28;20030;-70
2022/11/21 00:57:05;;;;;;;171.52;40.33;;;;;;;2.30;100.00;100542.94;5023754;28;20079;-69
2022/11/21 00:59:31;;;;;;;165.95;43.75;;;;;;;2.31;100.00;100539.53;5032461;28;20393;-70
2022/11/21 01:01:56;;;;;;;269.58;45.50;;;;;;;2.29;100.00;100532.50;5024474;28;20025;-72
2022/11/21 01:04:21;;;;;;;196.13;42.25;;;;;;;2.28;100.00;100529.03;5027115;28;20034;-70
2022/11/21 01:06:47;;;;;;;218.70;45.83;;;;;;;2.28;100.00;100525.50;5029755;28;20041;-70
2022/11/21 01:09:12;;;;;;;223.30;44.90;;;;;;;2.26;100.00;100515.06;5024118;28;20036;-70
2022/11/21 01:11:37;;;;;;;253.23;45.33;;;;;;;2.23;100.00;100530.50;5015148;28;20018;-70
2022/11/21 01:14:03;;;;;;;236.55;45.35;;;;;;;2.23;100.00;100538.31;5020561;28;20026;-70
2022/11/21 01:16:29;;;;;;;233.25;43.28;;;;;;;2.23;100.00;100530.50;5027220;28;20355;-70
2022/11/21 01:18:56;;;;;;;174.95;43.47;;;;;;;2.24;100.00;100528.78;5032240;28;20104;-70
2022/11/21 01:21:29;;;;;;;185.70;43.95;;;;;;;2.22;100.00;100527.84;5025430;28;20025;-70
2022/11/21 01:23:57;;;;;;;174.60;42.92;;;;;;;2.22;100.00;100538.22;5012397;28;20030;-69
2022/11/21 01:26:24;;;;;;;170.40;41.95;;;;;;;2.23;100.00;100542.63;5029586;28;20022;-70
2022/11/21 01:28:50;;;;;;;133.82;39.90;;;;;;;2.25;100.00;100515.00;5021637;28;20116;-69
2022/11/21 01:31:20;;;;;;;156.40;40.92;;;;;;;2.24;100.00;100524.50;5018339;28;20096;-71
2022/11/21 01:33:46;;;;;;;160.18;40.17;;;;;;;2.26;100.00;100525.44;5018353;28;20038;-69
2022/11/21 01:36:13;;;;;;;197.88;42.88;;;;;;;2.23;100.00;100530.50;5019613;28;20029;-69
2022/11/21 01:38:43;;;;;;;140.45;37.78;;;;;;;2.23;100.00;100520.13;5032506;28;20083;-70
2022/11/21 01:41:12;;;;;;;185.65;40.92;;;;;;;2.24;100.00;100528.78;5022325;28;20033;-70
2022/11/21 01:43:37;;;;;;;178.82;39.97;;;;;;;2.21;100.00;100519.16;5030425;28;20414;-72
2022/11/21 01:46:06;;;;;;;181.98;44.28;;;;;;;2.22;100.00;100528.72;5012393;28;20079;-71
2022/11/21 01:48:41;;;;;;;185.23;43.95;;;;;;;2.21;100.00;100520.88;5017348;28;20037;-70
2022/11/21 01:51:27;;;;;;;147.25;39.05;;;;;;;2.21;100.00;100521.75;5025783;28;20017;-70
2022/11/21 01:54:07;;;;;;;150.10;38.20;;;;;;;2.24;100.00;100518.41;5018476;28;20017;-70
2022/11/21 01:56:42;;;;;;;201.63;42.25;;;;;;;2.19;100.00;100526.00;5025833;28;20030;-69
2022/11/21 01:59:10;;;;;;;170.85;39.40;;;;;;;2.18;100.00;100522.53;5029891;28;20057;-69
2022/11/21 02:01:36;;;;;;;152.48;38.55;;;;;;;2.16;100.00;100518.09;5019933;28;20038;-70
2022/11/21 02:04:04;;;;;;;202.23;42.53;;;;;;;2.16;100.00;100518.97;5020703;28;20080;-70
2022/11/21 02:06:30;;;;;;;161.27;39.95;;;;;;;2.13;100.00;100521.44;5026893;28;20040;-70
2022/11/21 02:08:58;;;;;;;149.18;40.10;;;;;;;2.14;100.00;100522.31;5014239;28;20486;-71
2022/11/21 02:11:41;;;;;;;162.20;40.60;;;;;;;2.15;100.00;100521.50;5032206;28;20025;-71
2022/11/21 02:14:07;;;;;;;149.05;37.45;;;;;;;2.15;100.00;100519.78;5027490;28;20354;-69
2022/11/21 02:16:33;;;;;;;162.48;39.97;;;;;;;2.16;100.00;100526.75;5023036;28;20143;-70
2022/11/21 02:18:59;;;;;;;159.90;38.00;;;;;;;2.12;100.00;100529.16;5022101;28;20034;-69
2022/11/21 02:21:48;;;;;;;192.88;40.92;;;;;;;2.13;100.00;100534.41;5019346;28;20029;-70
2022/11/21 02:24:24;;;;;;;168.70;40.55;;;;;;;2.14;100.00;100548.25;5017259;28;20124;-70
2022/11/21 02:26:50;;;;;;;210.95;42.17;;;;;;;2.13;100.00;100543.88;5021925;28;20032;-71
2022/11/21 02:29:16;;;;;;;177.70;39.15;;;;;;;2.13;100.00;100538.69;5032490;28;20029;-70
2022/11/21 02:31:41;;;;;;;200.20;41.35;;;;;;;2.13;100.00;100538.69;5021971;28;20033;-70
2022/11/21 02:34:06;;;;;;;189.82;40.63;;;;;;;2.14;100.00;100530.09;5018120;28;20033;-70
2022/11/21 02:36:47;;;;;;;154.20;39.58;;;;;;;2.13;100.00;100523.13;5025563;28;20426;-70
2022/11/21 02:39:24;;;;;;;154.73;37.08;;;;;;;2.14;100.00;100525.81;5017986;28;20492;-69
2022/11/21 02:42:11;;;;;;;163.90;37.05;;;;;;;2.16;100.00;100516.38;5019207;28;20030;-70
2022/11/21 02:45:04;;;;;;;161.70;38.65;;;;;;;2.17;100.00;100522.44;5028795;28;20079;-70
2022/11/21 02:47:30;;;;;;;142.68;35.90;;;;;;;2.16;100.00;100505.09;5029408;28;20116;-71
2022/11/21 02:50:12;;;;;;;162.55;39.63;;;;;;;2.18;100.00;100503.44;5027523;28;20120;-69
2022/11/21 02:52:37;;;;;;;148.32;40.97;;;;;;;2.17;100.00;100499.97;5016132;28;20034;-69
2022/11/21 02:55:04;;;;;;;155.55;37.85;;;;;;;2.19;100.00;100507.84;5014435;28;20447;-69
2022/11/21 02:57:30;;;;;;;184.68;41.40;;;;;;;2.19;100.00;100503.50;5014359;28;20050;-70
2022/11/21 02:59:55;;;;;;;166.70;38.17;;;;;;;2.19;100.00;100492.25;5015845;28;20163;-69
2022/11/21 03:02:20;;;;;;;130.05;37.85;;;;;;;2.19;100.00;100494.84;5030047;28;20033;-71
2022/11/21 03:04:46;;;;;;;157.43;38.80;;;;;;;2.21;100.00;100497.50;5017890;28;20025;-69
2022/11/21 03:07:11;;;;;;;148.15;36.80;;;;;;;2.21;100.00;100505.31;5014189;28;20029;-70
2022/11/21 03:09:36;;;;;;;151.25;38.45;;;;;;;2.19;100.00;100505.25;5012885;28;20028;-70
2022/11/21 03:12:09;;;;;;;151.85;38.17;;;;;;;2.21;100.00;100511.38;5016859;28;20156;-70
2022/11/21 03:14:36;;;;;;;153.85;37.90;;;;;;;2.21;100.00;100498.38;5028547;28;20029;-70
2022/11/21 03:17:02;;;;;;;166.88;40.60;;;;;;;2.23;100.00;100501.09;5018727;28;20482;-70
2022/11/21 03:19:28;;;;;;;143.38;40.08;;;;;;;2.23;100.00;100499.34;5019551;28;20041;-71
2022/11/21 03:21:54;;;;;;;148.60;38.20;;;;;;;2.22;100.00;100494.97;5019188;28;20025;-71
2022/11/21 03:24:20;;;;;;;194.32;39.95;;;;;;;2.23;100.00;100499.34;5022695;28;20419;-69
2022/11/21 03:26:45;;;;;;;165.35;37.22;;;;;;;2.22;100.00;100484.59;5017027;28;20095;-70
2022/11/21 03:29:10;;;;;;;127.28;34.28;;;;;;;2.27;100.00;100496.06;5032185;28;20107;-70
2022/11/21 03:31:36;;;;;;;155.07;38.50;;;;;;;2.29;100.00;100483.16;5013296;28;20438;-70
2022/11/21 03:34:01;;;;;;;188.82;40.90;;;;;;;2.29;100.00;100483.16;5016144;28;20485;-71
2022/11/21 03:36:27;;;;;;;120.90;35.47;;;;;;;2.33;100.00;100487.66;5019495;28;20036;-70
2022/11/21 03:38:55;;;;;;;192.85;38.65;;;;;;;2.33;100.00;100479.88;5021111;28;20053;-70
2022/11/21 03:41:29;;;;;;;200.40;39.35;;;;;;;2.32;100.00;100468.63;5012747;28;20520;-70
2022/11/21 03:44:03;;;;;;;123.25;33.70;;;;;;;2.32;100.00;100485.88;5021551;28;20028;-70
2022/11/21 03:46:29;;;;;;;;;;;;;;;2.32;100.00;100486.78;5027710;28;20044;-70
2022/11/21 03:48:55;;;;;;;146.43;32.97;;;;;;;2.34;100.00;100472.16;5023429;28;20365;-71
2022/11/21 03:51:21;;;;;;;102.07;32.08;;;;;;;2.33;100.00;100480.78;5015236;28;20033;-70
2022/11/21 03:53:46;;;;;;;142.57;33.17;;;;;;;2.32;100.00;100468.63;5014821;28;20072;-69
2022/11/21 03:56:12;;;;;;;98.10;30.52;;;;;;;2.35;100.00;100460.94;5028448;28;20104;-69
2022/11/21 03:58:37;;;;;;;124.53;31.83;;;;;;;2.31;100.00;100464.25;5014838;28;20050;-70
2022/11/21 04:01:04;;;;;;;165.90;33.88;;;;;;;2.27;100.00;100459.72;5022408;28;20048;-70
2022/11/21 04:03:29;;;;;;;100.45;30.40;;;;;;;2.24;100.00;100462.19;5016554;28;20038;-70
2022/11/21 04:05:54;;;;;;;106.35;31.92;;;;;;;2.23;100.00;100462.16;5035837;28;20389;-70
2022/11/21 04:08:20;;;;;;;99.13;30.58;;;;;;;2.19;100.00;100461.09;5016273;28;20030;-70
2022/11/21 04:10:47;;;;;;;107.93;30.23;;;;;;;2.19;100.00;100461.09;5023094;28;20454;-70
2022/11/21 04:13:12;;;;;;;138.73;31.10;;;;;;;2.19;100.00;100468.91;5020809;28;20026;-69
2022/11/21 04:15:39;;;;;;;113.38;30.83;;;;;;;2.18;100.00;100469.72;5019619;28;20469;-70
2022/11/21 04:18:04;;;;;;;166.80;34.10;;;;;;;2.16;100.00;100464.44;5029691;28;20457;-68
2022/11/21 04:20:30;;;;;;;134.20;30.80;;;;;;;2.14;100.00;100458.31;5035511;28;20033;-70
2022/11/21 04:22:55;;;;;;;113.90;30.40;;;;;;;2.17;100.00;100465.31;5031463;28;20030;-70
2022/11/21 04:25:20;;;;;;;164.20;33.17;;;;;;;2.15;100.00;100451.41;5028256;28;20030;-69
2022/11/21 04:27:46;;;;;;;196.35;33.20;;;;;;;2.13;100.00;100451.34;5022382;28;20108;-70
2022/11/21 04:30:11;;;;;;;213.45;34.22;;;;;;;2.16;100.00;100453.19;5028860;28;20025;-70
2022/11/21 04:32:36;;;;;;;146.25;31.55;;;;;;;2.18;100.00;100449.84;5034143;28;20433;-69
2022/11/21 04:35:02;;;;;;;92.55;29.75;;;;;;;2.19;100.00;100442.94;5033977;28;20113;-70
2022/11/21 04:37:27;;;;;;;169.07;32.08;;;;;;;2.18;100.00;100447.25;5029601;28;20099;-71
2022/11/21 04:39:52;;;;;;;84.50;27.90;;;;;;;2.18;100.00;100452.44;5032520;28;20125;-71
2022/11/21 04:42:18;;;;;;;112.53;29.65;;;;;;;2.18;100.00;100448.94;5015710;28;20030;-70
2022/11/21 04:44:43;;;;;;;125.03;31.27;;;;;;;2.17;100.00;100450.66;5024149;28;20029;-70
2022/11/21 04:47:08;;;;;;;98.82;29.25;;;;;;;2.15;100.00;100439.31;5033190;28;20489;-70
2022/11/21 04:49:34;;;;;;;160.45;30.58;;;;;;;2.09;100.00;100425.16;5020012;28;20041;-70
2022/11/21 04:51:59;;;;;;;82.72;29.70;;;;;;;2.10;100.00;100420.03;5015457;28;20029;-71
2022/11/21 04:54:24;;;;;;;217.75;32.97;;;;;;;2.06;100.00;100412.06;5020688;28;20091;-70
2022/11/21 04:56:49;;;;;;;137.88;30.35;;;;;;;2.09;100.00;100410.50;5032629;28;20041;-70
2022/11/21 04:59:15;;;;;;;120.03;28.85;;;;;;;2.10;100.00;100416.56;5025968;28;20049;-70
2022/11/21 05:01:40;;;;;;;109.32;28.27;;;;;;;2.02;100.00;100418.81;5016767;28;20113;-68
2022/11/21 05:04:05;;;;;;;88.90;26.88;;;;;;;2.01;100.00;100414.47;5015283;28;20477;-69
2022/11/21 05:06:30;;;;;;;79.53;27.63;;;;;;;2.03;100.00;100410.22;5032321;28;20124;-71
2022/11/21 05:08:56;;;;;;;98.97;28.67;;;;;;;2.00;100.00;100410.97;5029927;28;20433;-71
2022/11/21 05:14:05;;;;;;;92.03;27.55;;;;;;;2.00;100.00;100407.50;5024507;28;20040;-70
2022/11/21 05:16:34;;;;;;;168.32;30.88;;;;;;;1.97;100.00;100408.25;5021216;28;20029;-70
2022/11/21 05:18:59;;;;;;;142.80;31.17;;;;;;;1.95;100.00;100401.22;5024673;28;20120;-70
2022/11/21 05:21:24;;;;;;;68.82;25.98;;;;;;;1.96;100.00;100411.66;5024663;28;20535;-70
2022/11/21 05:23:49;;;;;;;126.65;29.35;;;;;;;1.95;100.00;100404.69;5015378;28;20026;-70
2022/11/21 05:26:15;;;;;;;78.05;28.35;;;;;;;1.94;100.00;100397.75;5017504;28;20036;-71
2022/11/21 05:28:40;;;;;;;71.63;26.50;;;;;;;1.97;100.00;100387.50;5017574;28;20049;-70
2022/11/21 05:31:05;;;;;;;94.35;28.98;;;;;;;1.98;100.00;100389.28;5024296;28;20432;-70
2022/11/21 05:33:31;;;;;;;85.53;28.35;;;;;;;1.99;100.00;100390.16;5032894;28;20029;-70
2022/11/21 05:35:56;;;;;;;120.30;28.67;;;;;;;1.96;100.00;100385.72;5019699;28;20030;-70
2022/11/21 05:38:22;;;;;;;112.07;28.13;;;;;;;1.94;100.00;100376.09;5033489;28;20033;-70
2022/11/21 05:40:47;;;;;;;78.65;26.88;;;;;;;1.94;100.00;100376.09;5030615;28;20105;-70
2022/11/21 05:45:56;;;;;;;156.63;29.73;;;;;;;1.94;100.00;100370.91;5027898;28;20040;-72
2022/11/21 05:48:21;;;;;;;111.78;25.10;;;;;;;1.92;100.00;100376.03;5015927;28;20029;-69
2022/11/21 05:50:50;;;;;;;85.80;26.20;;;;;;;1.95;100.00;100367.50;5014201;28;20037;-70
2022/11/21 05:53:16;;;;;;;86.38;26.10;;;;;;;1.87;100.00;100369.75;5028440;28;20057;-70
2022/11/21 05:55:42;;;;;;;89.32;26.40;;;;;;;1.83;100.00;100363.53;5019821;28;20112;-70
2022/11/21 05:58:09;;;;;;;121.40;26.73;;;;;;;1.79;100.00;100364.22;5015315;28;20430;-70
2022/11/21 06:00:35;;;;;;;112.00;26.60;;;;;;;1.79;100.00;100356.44;5016127;28;20029;-70
2022/11/21 06:06:11;;;;;;;78.70;24.23;;;;;;;1.76;100.00;100350.22;5003505;28;20030;-70
2022/11/21 06:08:42;;;;;;;87.18;25.85;;;;;;;1.69;100.00;100342.16;5010879;28;20394;-70
2022/11/21 06:11:10;;;;;;;88.57;25.80;;;;;;;1.71;100.00;100336.16;5023430;28;20103;-70
2022/11/21 06:13:36;;;;;;;78.10;24.25;;;;;;;1.69;100.00;100333.50;5025505;28;20025;-70
2022/11/21 06:16:04;;;;;;;85.72;27.17;;;;;;;1.71;100.00;100341.34;5021836;28;20358;-70
2022/11/21 06:18:32;;;;;;;84.15;25.00;;;;;;;1.72;100.00;100337.94;5026107;28;20072;-70
2022/11/21 06:21:12;;;;;;;143.18;27.15;;;;;;;1.76;100.00;100350.22;5017750;28;20053;-71
2022/11/21 06:23:37;;;;;;;91.25;26.15;;;;;;;1.69;100.00;100351.66;5017803;28;20038;-70
2022/11/21 06:26:06;;;;;;;97.18;24.70;;;;;;;1.63;100.00;100349.69;5025165;28;20029;-70
2022/11/21 06:28:37;;;;;;;104.40;24.95;;;;;;;1.66;100.00;100339.44;5026078;28;20037;-69
2022/11/21 06:31:07;;;;;;;103.90;26.25;;;;;;;1.68;100.00;100326.53;5032310;28;20014;-70
2022/11/21 06:33:33;;;;;;;141.80;27.42;;;;;;;1.68;100.00;100327.44;5027600;28;20025;-70
2022/11/21 06:36:04;;;;;;;105.97;26.33;;;;;;;1.74;100.00;100328.53;5015137;28;20029;-70
2022/11/21 06:38:29;;;;;;;81.63;25.45;;;;;;;1.73;100.00;100317.25;5018538;28;20127;-70
2022/11/21 06:40:54;;;;;;;69.75;24.05;;;;;;;1.75;100.00;100312.13;5017209;28;20022;-71
2022/11/21 06:43:20;;;;;;;148.73;28.42;;;;;;;1.75;100.00;100313.03;5020443;28;20034;-70
2022/11/21 06:45:45;;;;;;;128.18;28.33;;;;;;;1.74;100.00;100316.44;5022199;28;20056;-70
2022/11/21 06:48:10;;;;;;;121.78;28.33;;;;;;;1.76;100.00;100321.69;5023992;28;20116;-71
2022/11/21 06:50:37;;;;;;;75.10;26.02;;;;;;;1.76;100.00;100307.00;5020249;28;20063;-71
2022/11/21 06:53:02;;;;;;;126.15;28.83;;;;;;;1.76;100.00;100295.75;5013142;28;20022;-70
2022/11/21 06:55:29;;;;;;;73.20;26.23;;;;;;;1.76;100.00;100294.03;5021297;28;20033;-70
2022/11/21 06:57:58;;;;;;;62.78;25.17;;;;;;;1.79;100.00;100282.91;5018827;28;20087;-70
2022/11/21 07:00:26;;;;;;;70.22;24.13;;;;;;;1.80;100.00;100284.69;5013759;28;20033;-69
2022/11/21 07:02:52;;;;;;;71.80;24.77;;;;;;;1.80;100.00;100279.50;5019061;28;20424;-70
2022/11/21 07:05:17;;;;;;;59.15;22.83;;;;;;;1.82;100.00;100283.94;5015773;28;20113;-69
2022/11/21 07:07:43;;;;;;;90.25;24.92;;;;;;;1.84;100.00;100281.41;5023806;28;20036;-70
2022/11/21 07:10:09;;;;;;;75.75;26.20;;;;;;;1.85;100.00;100278.00;5028778;28;20030;-70
2022/11/21 07:15:18;;;;;;;;;;;;;;;1.87;100.00;100284.13;5024255;28;20075;-71
2022/11/21 07:17:43;;;;;;;47.55;20.35;;;;;;;1.86;100.00;100279.78;5037572;28;19925;-69
2022/11/21 07:20:09;;;;;;;75.78;24.73;;;;;;;1.88;100.00;100288.50;5039448;28;20032;-70
2022/11/21 07:22:35;;;;;;;64.50;23.75;;;;;;;1.89;100.00;100290.28;5037658;28;20104;-70
2022/11/21 07:25:00;;;;;;;74.75;25.27;;;;;;;1.86;100.00;100290.16;5026427;28;20108;-70
2022/11/21 07:27:25;;;;;;;61.78;23.73;;;;;;;1.87;100.00;100286.72;5042368;28;20436;-70
2022/11/21 07:29:51;;;;;;;64.03;25.55;;;;;;;1.88;100.00;100285.91;5025680;28;20029;-68
2022/11/21 07:32:16;;;;;;;94.25;25.00;;;;;;;1.90;100.00;100286.88;5032131;28;20022;-70
2022/11/21 07:34:41;;;;;;;72.85;26.63;;;;;;;1.93;100.00;100284.41;5027595;28;20071;-70
2022/11/21 07:37:07;;;;;;;88.68;25.40;;;;;;;1.94;100.00;100283.59;5026136;28;20033;-68
2022/11/21 07:39:32;;;;;;;112.35;25.45;;;;;;;1.98;100.00;100294.97;5026144;28;20108;-70
2022/11/21 07:41:57;;;;;;;88.55;26.27;;;;;;;1.99;100.00;100287.25;5014392;28;20038;-69
2022/11/21 07:44:23;;;;;;;75.60;23.02;;;;;;;2.03;100.00;100285.66;5015654;28;20021;-69
2022/11/21 07:46:48;;;;;;;85.82;25.67;;;;;;;2.07;100.00;100289.28;5016535;28;20045;-69
2022/11/21 07:49:13;;;;;;;69.40;25.10;;;;;;;2.09;100.00;100277.25;5031014;28;20099;-70
2022/11/21 07:51:38;;;;;;;63.70;23.27;;;;;;;2.11;100.00;100270.41;5022028;28;20104;-70
2022/11/21 07:54:04;;;;;;;188.27;27.88;;;;;;;2.12;100.00;100270.47;5032498;28;20049;-69
2022/11/21 07:56:29;;;;;;;74.18;21.73;;;;;;;2.17;100.00;100268.06;5014611;28;20044;-69
2022/11/21 07:58:55;;;;;;;111.75;23.52;;;;;;;2.18;100.00;100264.66;5019475;28;20107;-69
2022/11/21 08:01:20;;;;;;;161.30;26.08;;;;;;;2.18;100.00;100267.25;5030694;28;20362;-69
2022/11/21 08:03:45;;;;;;;108.85;22.80;;;;;;;2.18;100.00;100262.06;5020481;28;20030;-70
2022/11/21 08:06:11;;;;;;;86.50;23.88;;;;;;;2.19;100.00;100256.03;5029721;28;20030;-69
2022/11/21 08:08:37;;;;;;;83.03;22.38;;;;;;;2.19;100.00;100254.31;5026329;28;20113;-69
2022/11/21 08:11:06;;;;;;;131.43;24.45;;;;;;;2.21;100.00;100245.72;5025880;28;20097;-70
2022/11/21 08:13:32;;;;;;;159.48;24.50;;;;;;;2.27;100.00;100241.66;5031743;28;20029;-67
2022/11/21 08:15:58;;;;;;;53.45;19.65;;;;;;;2.29;100.00;100242.63;5020896;28;20107;-70
2022/11/21 08:18:23;;;;;;;72.88;21.50;;;;;;;2.29;100.00;100234.84;5020003;28;20025;-69
2022/11/21 08:20:48;;;;;;;107.50;22.52;;;;;;;2.31;100.00;100233.19;5024243;28;20033;-70
2022/11/21 08:23:14;;;;;;;74.22;21.88;;;;;;;2.36;100.00;100236.84;5020096;28;20037;-69
2022/11/21 08:25:44;;;;;;;52.17;20.67;;;;;;;2.41;100.00;100238.75;5018546;28;20030;-70
2022/11/21 08:28:10;;;;;;;243.98;27.23;;;;;;;2.41;100.00;100236.16;5013175;28;20187;-70
2022/11/21 08:30:39;;;;;;;48.67;20.33;;;;;;;2.43;100.00;100226.69;5016928;28;20028;-69
2022/11/21 08:33:07;;;;;;;40.13;18.17;;;;;;;2.48;100.00;100225.16;5027467;28;20025;-70
2022/11/21 08:35:35;;;;;;;66.75;20.20;;;;;;;2.47;100.00;100224.28;5013004;28;20026;-70
2022/11/21 08:38:10;;;;;;;119.43;22.98;;;;;;;2.48;100.00;100220.88;5012465;28;20521;-70
2022/11/21 08:40:39;;;;;;;46.03;18.95;;;;;;;2.52;100.00;100214.97;5022037;28;20470;-68
2022/11/21 08:43:06;;;;;;;51.78;21.13;;;;;;;2.58;100.00;100216.00;5013533;28;20113;-69
2022/11/21 08:45:35;;;;;;;53.70;19.75;;;;;;;2.65;100.00;100208.53;5027153;28;20028;-69
2022/11/21 08:48:02;;;;;;;83.57;20.30;;;;;;;2.70;100.00;100208.72;5026523;28;20112;-69
2022/11/21 08:50:27;;;;;;;41.97;18.38;;;;;;;2.78;100.00;100208.97;5020182;28;20077;-69
2022/11/21 08:52:59;;;;;;;75.45;21.73;;;;;;;2.84;100.00;100201.44;5027884;28;20474;-72
2022/11/21 08:55:27;;;;;;;73.57;21.02;;;;;;;2.88;100.00;100195.53;5020984;28;20488;-69
2022/11/21 08:57:55;;;;;;;64.35;19.65;;;;;;;2.98;100.00;100199.34;5026633;28;20482;-69
2022/11/21 09:00:24;;;;;;;59.42;21.38;;;;;;;3.10;100.00;100196.31;5021012;28;20026;-70
2022/11/21 09:02:49;;;;;;;40.38;18.50;;;;;;;3.20;100.00;100188.00;5025287;28;20038;-69
2022/11/21 09:05:15;;;;;;;62.85;22.00;;;;;;;3.24;100.00;100187.28;5025544;28;20092;-69
2022/11/21 09:07:44;;;;;;;53.20;20.92;;;;;;;3.33;100.00;100191.94;5025178;28;20049;-71
2022/11/21 09:10:14;;;;;;;51.97;21.48;;;;;;;3.41;100.00;100187.00;5026562;28;20065;-70
2022/11/21 09:12:39;;;;;;;43.45;18.92;;;;;;;3.54;100.00;100186.56;5040886;28;20032;-70
2022/11/21 09:18:02;;;;;;;51.50;19.92;;;;;;;3.94;100.00;100159.28;5042390;28;20084;-69
2022/11/21 09:20:28;;;;;;;56.05;20.35;;;;;;;4.18;100.00;100164.38;5035704;28;20025;-70
2022/11/21 09:22:58;;;;;;;70.22;22.17;;;;;;;4.47;100.00;100160.91;5045121;28;20675;-72
2022/11/21 09:25:31;;;;;;;59.33;20.10;;;;;;;4.72;100.00;100160.81;5043581;28;20457;-70
2022/11/21 09:28:07;;;;;;;57.35;20.88;;;;;;;4.93;100.00;100162.25;5038289;28;20529;-71
2022/11/21 09:30:33;;;;;;;56.33;20.80;;;;;;;5.11;100.00;100161.88;5036143;28;20457;-70
2022/11/21 09:33:00;;;;;;;45.75;19.63;;;;;;;5.24;100.00;100152.69;5042693;28;20016;-71
2022/11/21 09:35:26;;;;;;;52.25;18.30;;;;;;;5.33;100.00;100138.97;5040414;28;20029;-70
2022/11/21 09:37:51;;;;;;;48.65;18.00;;;;;;;5.51;100.00;100147.31;5047019;28;20021;-71
2022/11/21 09:40:19;;;;;;;51.55;17.92;;;;;;;5.60;100.00;100140.53;5039326;28;20033;-70
2022/11/21 09:43:10;;;;;;;41.25;17.33;;;;;;;5.80;100.00;100134.09;5019156;28;20500;-70
2022/11/21 09:45:57;;;;;;;42.65;16.30;;;;;;;6.03;100.00;100137.28;5025924;28;20481;-71
2022/11/21 09:48:29;;;;;;;50.08;16.08;;;;;;;6.12;100.00;100141.84;5028489;28;20045;-70
2022/11/21 09:51:01;;;;;;;32.35;13.15;;;;;;;6.33;100.00;100141.44;5028207;28;20022;-71
2022/11/21 09:53:36;;;;;;;38.05;12.95;;;;;;;6.51;100.00;100141.00;5022837;28;20060;-70
2022/11/21 09:56:09;;;;;;;35.20;11.38;;;;;;;6.68;100.00;100133.47;5028747;28;20033;-69
2022/11/21 09:59:03;;;;;;;29.85;12.40;;;;;;;6.77;100.00;100130.19;5034289;28;20045;-70
2022/11/21 10:01:28;;;;;;;37.37;11.60;;;;;;;6.96;100.00;100123.59;5027483;28;20144;-70
2022/11/21 10:03:54;;;;;;;33.42;11.05;;;;;;;6.93;100.00;100126.13;5019570;28;20033;-70
2022/11/21 10:06:25;;;;;;;26.30;9.77;;;;;;;7.04;100.00;100127.25;5013321;28;20370;-69
2022/11/21 10:09:18;;;;;;;25.90;9.02;;;;;;;7.07;100.00;100111.59;5014562;28;20033;-69
2022/11/21 10:14:56;;;;;;;20.10;8.00;;;;;;;7.28;100.00;100102.38;5014526;28;20120;-72
2022/11/21 10:17:46;;;;;;;22.30;8.45;;;;;;;7.62;100.00;100109.94;5037471;28;20480;-71
2022/11/21 10:20:52;;;;;;;18.60;7.85;;;;;;;8.01;100.00;100098.34;5028398;28;20470;-69
2022/11/21 10:23:31;;;;;;;13.00;6.88;;;;;;;8.20;100.00;100099.47;5006093;28;20104;-69
2022/11/21 10:26:12;;;;;;;18.70;8.07;;;;;;;8.50;100.00;100100.78;5018950;28;20026;-70
2022/11/21 10:28:55;;;;;;;22.63;5.82;;;;;;;8.21;100.00;100096.88;5031028;28;20080;-70
2022/11/21 10:31:21;;;;;;;14.67;4.63;;;;;;;8.50;100.00;100088.53;5034940;28;20021;-70
2022/11/21 10:33:50;;;;;;;15.75;5.45;;;;;;;8.69;100.00;100089.66;5043336;28;20436;-70
2022/11/21 10:36:25;;;;;;;12.95;4.80;;;;;;;8.77;100.00;100088.00;5041053;28;20029;-68
2022/11/21 10:38:57;;;;;;;11.80;4.82;;;;;;;8.97;100.00;100079.50;5046868;28;20025;-69
2022/11/21 10:41:29;;;;;;;16.77;5.55;;;;;;;9.30;100.00;100085.94;5047262;28;20036;-70
2022/11/21 10:46:56;;;;;;;16.77;5.05;;;;;;;9.25;100.00;100075.41;5046134;28;20448;-69
2022/11/21 10:49:24;;;;;;;14.18;5.10;;;;;;;9.01;100.00;100076.03;5041696;28;20024;-70
2022/11/21 10:52:11;;;;;;;9.50;4.47;;;;;;;8.61;100.00;100075.56;5040400;28;20032;-70
2022/11/21 10:55:16;;;;;;;16.58;4.75;;;;;;;8.70;100.00;100069.56;5046070;28;20029;-70
2022/11/21 10:57:45;;;;;;;9.70;4.65;;;;;;;8.76;100.00;100064.38;5023648;28;20058;-69
2022/11/21 11:00:12;;;;;;;18.25;5.30;;;;;;;8.97;100.00;100058.50;5017942;28;20125;-69
2022/11/21 11:02:39;;;;;;;14.77;5.60;;;;;;;9.19;100.00;100058.72;5028740;28;20045;-70
2022/11/21 11:05:24;;;;;;;14.45;5.35;;;;;;;9.56;100.00;100056.41;5045826;28;20107;-69
2022/11/21 11:08:07;;;;;;;12.05;5.45;;;;;;;9.98;100.00;100052.31;5045251;28;20026;-69
2022/11/21 11:10:37;;;;;;;8.48;4.60;;;;;;;10.14;100.00;100055.91;5043892;28;20029;-70
2022/11/21 11:16:22;;;;;;;13.98;4.40;;;;;;;10.19;100.00;100048.06;5022836;28;20505;-72
2022/11/21 11:19:00;;;;;;;13.32;4.60;;;;;;;10.45;100.00;100046.44;5049263;28;20330;-69
2022/11/21 11:21:34;;;;;;;10.57;4.07;;;;;;;10.64;100.00;100036.00;5031605;28;20034;-69
2022/11/21 11:24:26;;;;;;;14.18;3.90;;;;;;;10.58;100.00;100028.97;5045914;28;20025;-70
2022/11/21 11:26:51;;;;;;;10.63;4.25;;;;;;;10.74;100.00;100023.75;5018722;28;20040;-69
2022/11/21 11:29:22;;;;;;;10.75;3.65;;;;;;;10.47;100.00;100025.41;5021871;28;20052;-69
2022/11/21 11:32:17;;;;;;;6.20;3.53;;;;;;;10.37;100.00;100024.50;5016171;28;20025;-69
2022/11/21 11:35:17;;;;;;;14.57;4.30;;;;;;;10.26;100.00;100013.03;5048061;28;20104;-70
2022/11/21 11:38:00;;;;;;;14.82;4.68;;;;;;;10.45;100.00;99996.47;5037633;28;20076;-69